Time;durP1;ratioP1;P1;durP2;ratioP2;P2;SDS_P1;SDS_P2;PMS_P1;PMS_P2;Temp;Humidity;BMP_temperature;BMP_pressure;BME280_temperature;BME280_humidity;BME280_pressure;Samples;Min_cycle;Max_cycle;Signal;HPM_P1;HPM_P2
2023/10/16 00:00:55;;;;;;;4.10;1.60;;;4.50;1.00;;;;;;5031224;28;20845;-77
2023/10/16 00:03:22;;;;;;;2.30;1.43;;;4.50;1.00;;;;;;5025150;28;20209;-78
2023/10/16 00:05:51;;;;;;;2.83;1.60;;;4.50;1.00;;;;;;5023542;28;20184;-78
2023/10/16 00:08:17;;;;;;;4.73;2.30;;;4.50;1.00;;;;;;5016005;28;20555;-75
2023/10/16 00:11:01;;;;;;;4.00;1.63;;;4.50;1.00;;;;;;5023447;28;20979;-77
2023/10/16 00:13:27;;;;;;;2.40;1.70;;;4.50;1.00;;;;;;5026670;28;20479;-79
2023/10/16 00:15:59;;;;;;;2.40;1.70;;;4.60;1.00;;;;;;5028078;28;20456;-77
2023/10/16 00:18:26;;;;;;;1.87;1.63;;;4.70;1.00;;;;;;5029220;28;20185;-77
2023/10/16 00:20:52;;;;;;;2.20;1.80;;;4.60;1.00;;;;;;5026297;28;20851;-77
2023/10/16 00:23:24;;;;;;;1.90;1.70;;;5.10;1.00;;;;;;5026279;28;20525;-77
2023/10/16 00:25:50;;;;;;;1.53;1.37;;;4.60;1.00;;;;;;5021648;28;20938;-78
2023/10/16 00:28:20;;;;;;;3.07;1.50;;;4.90;1.00;;;;;;5029120;28;20460;-77
2023/10/16 00:30:46;;;;;;;2.83;1.80;;;4.80;1.00;;;;;;5031231;28;20433;-77
2023/10/16 00:33:13;;;;;;;2.83;1.70;;;4.60;1.00;;;;;;5029495;28;20463;-77
2023/10/16 00:35:40;;;;;;;2.87;2.00;;;4.90;1.00;;;;;;5029337;28;20660;-76
2023/10/16 00:38:12;;;;;;;3.33;1.43;;;4.70;1.00;;;;;;5028350;28;20639;-76
2023/10/16 00:40:40;;;;;;;2.70;1.80;;;5.00;1.00;;;;;;5015483;28;20824;-76
2023/10/16 00:43:16;;;;;;;2.30;1.80;;;5.10;1.00;;;;;;5025735;28;21022;-76
2023/10/16 00:45:47;;;;;;;2.73;1.83;;;4.90;1.00;;;;;;5017796;28;20429;-78
2023/10/16 00:48:17;;;;;;;3.87;2.20;;;4.60;1.00;;;;;;5013630;28;20468;-80
2023/10/16 00:50:45;;;;;;;2.90;1.97;;;4.50;1.00;;;;;;5021171;28;20422;-77
2023/10/16 00:53:15;;;;;;;2.53;2.07;;;4.40;1.00;;;;;;5021170;28;20448;-77
2023/10/16 00:55:41;;;;;;;2.67;1.97;;;4.20;1.00;;;;;;5024968;28;20570;-77
2023/10/16 00:58:07;;;;;;;1.77;1.67;;;4.00;1.00;;;;;;5018668;28;20528;-80
2023/10/16 01:00:38;;;;;;;2.33;1.57;;;3.40;1.00;;;;;;5019135;28;20641;-81
2023/10/16 01:03:05;;;;;;;2.23;1.83;;;3.40;1.00;;;;;;5021312;28;20610;-77
2023/10/16 01:05:33;;;;;;;1.50;1.40;;;3.40;1.00;;;;;;5023902;28;20509;-78
2023/10/16 01:08:00;;;;;;;3.30;1.57;;;3.70;1.00;;;;;;5016650;28;20461;-77
2023/10/16 01:10:27;;;;;;;2.10;1.90;;;3.30;1.00;;;;;;5023217;28;20795;-77
2023/10/16 01:12:55;;;;;;;2.57;1.70;;;3.30;1.00;;;;;;5025644;28;20456;-77
2023/10/16 01:15:22;;;;;;;2.93;2.00;;;3.30;1.00;;;;;;5024603;28;20612;-77
2023/10/16 01:17:48;;;;;;;3.53;2.07;;;3.40;1.00;;;;;;5025192;28;20436;-78
2023/10/16 01:20:18;;;;;;;2.33;1.40;;;3.70;1.00;;;;;;5022130;28;20433;-80
2023/10/16 01:22:52;;;;;;;2.60;2.17;;;3.70;1.00;;;;;;5028566;28;20335;-78
2023/10/16 01:25:18;;;;;;;2.37;1.67;;;3.40;1.00;;;;;;5022696;28;20868;-79
2023/10/16 01:27:44;;;;;;;2.83;1.90;;;3.50;1.00;;;;;;5025923;28;20468;-76
2023/10/16 01:30:10;;;;;;;3.00;1.90;;;3.70;1.00;;;;;;5024639;28;20178;-76
2023/10/16 01:32:38;;;;;;;4.50;2.30;;;3.20;1.00;;;;;;5023840;28;20174;-77
2023/10/16 01:35:08;;;;;;;2.80;1.93;;;3.20;1.00;;;;;;5030065;28;20882;-74
2023/10/16 01:37:41;;;;;;;2.73;1.80;;;3.10;1.00;;;;;;5026126;28;20508;-76
2023/10/16 01:40:23;;;;;;;2.17;1.67;;;3.10;1.00;;;;;;5026004;28;20509;-79
2023/10/16 01:42:53;;;;;;;2.00;1.60;;;3.20;1.00;;;;;;5025574;28;20594;-77
2023/10/16 01:45:23;;;;;;;2.77;1.90;;;3.30;1.00;;;;;;5026495;28;20545;-78
2023/10/16 01:47:48;;;;;;;1.87;1.60;;;3.20;1.00;;;;;;5022218;28;20517;-76
2023/10/16 01:50:21;;;;;;;2.20;1.77;;;3.10;1.00;;;;;;5023949;28;20467;-76
2023/10/16 01:52:47;;;;;;;1.70;1.60;;;2.10;1.00;;;;;;5009388;28;20190;-76
2023/10/16 01:55:16;;;;;;;1.80;1.60;;;3.20;1.00;;;;;;5009805;28;20444;-77
2023/10/16 01:57:44;;;;;;;2.73;1.60;;;3.20;1.00;;;;;;5032105;28;20787;-76
2023/10/16 02:00:18;;;;;;;6.30;1.90;;;3.10;1.00;;;;;;5019373;28;20954;-76
2023/10/16 02:02:45;;;;;;;2.17;1.57;;;3.00;1.00;;;;;;5020753;28;20537;-79
2023/10/16 02:05:11;;;;;;;2.80;1.97;;;3.30;1.00;;;;;;5026250;28;20526;-76
2023/10/16 02:07:41;;;;;;;3.00;2.00;;;3.50;1.00;;;;;;5026571;28;21048;-77
2023/10/16 02:10:12;;;;;;;3.60;2.20;;;2.90;1.00;;;;;;5013179;28;20197;-76
2023/10/16 02:12:38;;;;;;;2.30;1.60;;;3.10;1.00;;;;;;5031052;28;20455;-78
2023/10/16 02:15:06;;;;;;;1.87;1.47;;;3.20;1.00;;;;;;5025026;28;20440;-76
2023/10/16 02:17:32;;;;;;;1.83;1.63;;;3.10;1.00;;;;;;5024601;28;20506;-76
2023/10/16 02:19:57;;;;;;;4.10;1.70;;;3.30;1.00;;;;;;5027197;28;20440;-75
2023/10/16 02:22:23;;;;;;;3.40;1.80;;;2.90;1.00;;;;;;5022622;28;20181;-76
2023/10/16 02:24:49;;;;;;;2.57;1.60;;;3.00;1.00;;;;;;5016835;28;20181;-76
2023/10/16 02:27:18;;;;;;;2.30;1.60;;;3.30;1.00;;;;;;4983379;28;1035230;-76
2023/10/16 02:29:52;;;;;;;4.37;1.80;;;4.80;1.00;;;;;;5018342;28;20178;-77
2023/10/16 02:32:17;;;;;;;3.00;1.80;;;2.80;1.00;;;;;;5020837;28;20436;-74
2023/10/16 02:34:43;;;;;;;2.63;1.90;;;2.90;1.00;;;;;;5026043;28;20428;-77
2023/10/16 02:37:14;;;;;;;2.57;1.40;;;3.00;1.00;;;;;;5025709;28;20248;-77
2023/10/16 02:39:41;;;;;;;5.50;1.97;;;3.00;1.00;;;;;;5027284;28;20170;-77
2023/10/16 02:42:12;;;;;;;1.73;1.63;;;3.10;1.00;;;;;;5028231;28;20965;-77
2023/10/16 02:44:47;;;;;;;2.83;1.70;;;3.10;1.00;;;;;;5022877;28;20780;-78
2023/10/16 02:47:13;;;;;;;1.83;1.60;;;3.00;1.00;;;;;;5026944;28;20935;-76
2023/10/16 02:49:47;;;;;;;2.77;1.90;;;2.70;1.00;;;;;;5024765;28;20578;-76
2023/10/16 02:52:14;;;;;;;2.10;1.60;;;3.30;1.00;;;;;;5020970;28;20260;-76
2023/10/16 02:54:40;;;;;;;2.80;1.60;;;3.00;1.00;;;;;;5025462;28;20454;-78
2023/10/16 02:57:06;;;;;;;2.83;1.90;;;3.00;1.00;;;;;;5026841;28;20502;-76
2023/10/16 02:59:33;;;;;;;3.60;1.57;;;3.10;1.00;;;;;;5026909;28;20178;-77
2023/10/16 03:01:59;;;;;;;4.40;2.93;;;3.30;1.00;;;;;;5022398;28;20444;-76
2023/10/16 03:04:27;;;;;;;5.43;3.30;;;2.90;1.00;;;;;;5018341;28;20459;-76
2023/10/16 03:06:54;;;;;;;3.77;2.40;;;3.30;1.00;;;;;;5034262;28;20275;-78
2023/10/16 03:09:25;;;;;;;3.27;2.23;;;3.00;1.00;;;;;;5018525;28;21010;-79
2023/10/16 03:12:13;;;;;;;5.37;2.13;;;2.90;1.00;;;;;;5020239;28;20425;-76
2023/10/16 03:14:51;;;;;;;2.70;1.80;;;2.70;1.00;;;;;;5012044;28;20559;-75
2023/10/16 03:17:25;;;;;;;4.13;2.17;;;3.00;1.00;;;;;;5017133;28;20514;-76
2023/10/16 03:19:54;;;;;;;1.80;1.63;;;2.80;1.00;;;;;;5020697;28;20440;-80
2023/10/16 03:22:21;;;;;;;2.60;1.70;;;3.10;1.00;;;;;;5027415;28;20439;-78
2023/10/16 03:24:47;;;;;;;2.77;1.87;;;3.20;1.00;;;;;;5025268;28;20431;-78
2023/10/16 03:27:27;;;;;;;1.90;1.70;;;3.00;1.00;;;;;;5027455;28;20503;-78
2023/10/16 03:29:54;;;;;;;2.50;2.00;;;3.00;1.00;;;;;;5030786;28;20443;-77
2023/10/16 03:32:20;;;;;;;2.50;2.13;;;2.80;1.00;;;;;;5031202;28;20539;-77
2023/10/16 03:34:45;;;;;;;3.07;1.70;;;3.00;1.00;;;;;;5028969;28;21036;-77
2023/10/16 03:37:12;;;;;;;3.50;2.00;;;3.10;1.00;;;;;;5030506;28;20192;-77
2023/10/16 03:39:38;;;;;;;2.70;1.67;;;2.80;1.00;;;;;;5023168;28;20675;-77
2023/10/16 03:42:09;;;;;;;4.53;2.17;;;3.30;1.00;;;;;;5025448;28;20436;-79
2023/10/16 03:44:36;;;;;;;1.90;1.63;;;2.90;1.00;;;;;;5030307;28;20204;-76
2023/10/16 03:47:05;;;;;;;3.63;2.27;;;3.30;1.00;;;;;;5026812;28;20515;-77
2023/10/16 03:49:31;;;;;;;2.90;1.67;;;3.30;1.00;;;;;;5025807;28;20787;-79
2023/10/16 03:51:57;;;;;;;2.93;1.60;;;2.90;1.00;;;;;;5030908;28;20440;-78
2023/10/16 03:54:31;;;;;;;4.20;2.37;;;2.80;1.00;;;;;;5026573;28;20460;-77
2023/10/16 03:56:59;;;;;;;1.97;1.60;;;2.80;1.00;;;;;;5023769;28;20177;-80
2023/10/16 03:59:26;;;;;;;2.70;2.20;;;2.70;1.00;;;;;;5026867;28;20497;-78
2023/10/16 04:01:51;;;;;;;2.40;1.60;;;3.00;1.00;;;;;;5044109;28;20432;-77
2023/10/16 04:04:18;;;;;;;1.73;1.40;;;3.00;1.00;;;;;;5030160;28;20452;-77
2023/10/16 04:06:43;;;;;;;1.67;1.50;;;3.00;1.00;;;;;;5029613;28;20197;-78
2023/10/16 04:09:09;;;;;;;1.90;1.70;;;2.90;1.00;;;;;;5030831;28;20504;-77
2023/10/16 04:11:37;;;;;;;5.13;2.50;;;2.50;1.00;;;;;;5029760;28;20437;-77
2023/10/16 04:14:14;;;;;;;2.80;1.97;;;2.50;1.00;;;;;;5031900;28;20444;-78
2023/10/16 04:16:54;;;;;;;3.07;1.93;;;2.50;1.00;;;;;;5029327;28;20927;-77
2023/10/16 04:24:30;;;;;;;4.33;2.20;;;2.30;1.00;;;;;;5033171;28;20256;-78
2023/10/16 04:32:39;;;;;;;2.07;1.47;;;2.30;1.00;;;;;;5021833;28;20511;-77
2023/10/16 04:35:29;;;;;;;3.43;2.07;;;2.30;1.00;;;;;;5029633;28;20459;-78
2023/10/16 04:37:55;;;;;;;4.87;1.90;;;2.30;1.00;;;;;;5025925;28;20429;-78
2023/10/16 04:42:22;;;;;;;2.53;1.37;;;2.20;1.00;;;;;;5017384;28;20540;-76
2023/10/16 04:43:37;;;;;;;2.20;1.73;;;2.70;1.00;;;;;;5023692;28;20451;-78
2023/10/16 04:46:16;;;;;;;3.43;1.93;;;2.70;1.00;;;;;;5023821;28;20432;-76
2023/10/16 04:48:48;;;;;;;2.40;1.60;;;2.10;1.00;;;;;;5027785;28;20468;-77
2023/10/16 04:51:17;;;;;;;3.60;1.83;;;2.00;1.00;;;;;;5024774;28;20911;-78
2023/10/16 04:53:58;;;;;;;4.30;1.87;;;2.10;1.00;;;;;;5030462;28;20958;-77
2023/10/16 05:02:10;;;;;;;3.30;1.63;;;2.40;1.00;;;;;;5025579;28;20841;-77
2023/10/16 05:07:37;;;;;;;2.40;1.80;;;2.30;1.00;;;;;;5024280;28;20431;-78
2023/10/16 05:10:51;;;;;;;3.30;1.93;;;2.40;1.00;;;;;;5028019;28;20507;-76
2023/10/16 05:18:46;;;;;;;1.90;1.50;;;2.00;1.00;;;;;;5028307;28;20466;-76
2023/10/16 06:16:04;;;;;;;2.67;1.90;;;2.90;1.00;;;;;;5015296;28;20474;-75
2023/10/16 06:18:30;;;;;;;3.50;2.10;;;2.60;1.00;;;;;;5027323;28;20444;-78
2023/10/16 06:21:00;;;;;;;3.70;2.00;;;3.10;1.00;;;;;;5027683;28;20177;-76
2023/10/16 06:23:29;;;;;;;2.60;1.73;;;3.30;1.00;;;;;;5031823;28;20456;-77
2023/10/16 06:25:55;;;;;;;4.83;2.07;;;3.00;1.00;;;;;;5021863;28;20425;-76
2023/10/16 06:28:21;;;;;;;3.92;2.10;;;3.00;1.00;;;;;;5024290;28;20812;-76
2023/10/16 06:30:47;;;;;;;2.93;1.80;;;3.30;1.00;;;;;;5024507;28;20193;-76
2023/10/16 06:33:14;;;;;;;2.17;1.83;;;3.90;1.00;;;;;;5027847;28;20190;-76
2023/10/16 06:35:41;;;;;;;26.90;3.00;;;3.50;1.00;;;;;;5027148;28;20534;-77
2023/10/16 06:38:11;;;;;;;3.23;2.40;;;3.80;1.00;;;;;;5026972;28;20440;-76
2023/10/16 06:40:37;;;;;;;2.33;1.87;;;3.70;1.00;;;;;;5028227;28;20532;-77
2023/10/16 06:43:14;;;;;;;2.50;1.80;;;3.80;1.00;;;;;;5027114;28;20858;-76
2023/10/16 06:45:57;;;;;;;2.27;1.53;;;3.80;1.00;;;;;;5028791;28;20438;-75
2023/10/16 06:48:23;;;;;;;3.13;1.90;;;4.10;1.00;;;;;;5027381;28;20850;-76
2023/10/16 06:50:54;;;;;;;2.73;2.13;;;3.90;1.00;;;;;;5023553;28;20464;-76
2023/10/16 06:53:22;;;;;;;6.53;2.27;;;4.50;1.00;;;;;;5024358;28;20201;-76
2023/10/16 06:55:50;;;;;;;6.30;2.77;;;4.40;1.00;;;;;;5022963;28;20433;-72
2023/10/16 06:58:18;;;;;;;8.20;3.93;;;4.10;1.00;;;;;;5023377;28;20483;-77
2023/10/16 07:00:47;;;;;;;4.70;2.70;;;4.30;1.00;;;;;;5025686;28;20425;-76
2023/10/16 07:03:13;;;;;;;3.90;2.27;;;4.30;1.00;;;;;;5024916;28;20287;-75
2023/10/16 07:05:48;;;;;;;5.10;2.47;;;4.30;1.00;;;;;;5023526;28;20441;-74
2023/10/16 07:08:18;;;;;;;2.40;2.07;;;4.50;1.00;;;;;;5023770;28;20460;-80
2023/10/16 07:10:51;;;;;;;3.10;1.80;;;4.50;1.00;;;;;;5021900;28;20444;-77
2023/10/16 07:13:27;;;;;;;2.77;2.00;;;4.90;1.00;;;;;;5027547;28;20444;-75
2023/10/16 07:15:59;;;;;;;3.43;1.90;;;4.70;1.00;;;;;;5023498;28;20781;-80
2023/10/16 07:18:25;;;;;;;3.40;1.83;;;4.80;1.00;;;;;;5025468;28;20433;-79
2023/10/16 07:23:20;;;;;;;2.40;1.80;;;5.10;1.00;;;;;;5026248;28;20455;-80
2023/10/16 07:25:56;;;;;;;4.97;1.93;;;5.10;1.00;;;;;;5031031;28;20436;-78
2023/10/16 07:28:22;;;;;;;2.90;1.90;;;5.30;1.00;;;;;;5025834;28;20209;-76
2023/10/16 07:30:48;;;;;;;1.83;1.53;;;5.40;1.00;;;;;;5027067;28;20498;-75
2023/10/16 07:33:14;;;;;;;3.70;2.10;;;5.60;1.00;;;;;;5026484;28;20460;-75
2023/10/16 07:35:47;;;;;;;5.47;2.30;;;5.50;1.00;;;;;;5027623;28;20432;-74
2023/10/16 07:38:21;;;;;;;4.33;2.77;;;5.60;1.00;;;;;;5022817;28;20475;-77
2023/10/16 07:40:59;;;;;;;3.60;2.00;;;5.70;1.00;;;;;;5025794;28;20926;-76
2023/10/16 07:43:33;;;;;;;2.80;2.00;;;5.90;1.00;;;;;;5029208;28;20475;-81
2023/10/16 07:46:16;;;;;;;2.90;2.27;;;6.10;1.00;;;;;;5028282;28;20448;-76
2023/10/16 07:48:45;;;;;;;3.87;2.07;;;6.30;1.00;;;;;;5022445;28;20459;-76
2023/10/16 07:51:11;;;;;;;2.83;1.80;;;6.90;1.00;;;;;;5030810;28;20432;-79
2023/10/16 07:53:38;;;;;;;3.83;2.20;;;6.90;1.00;;;;;;5025928;28;20475;-76
2023/10/16 07:56:19;;;;;;;3.53;2.20;;;7.20;1.00;;;;;;5028879;28;20428;-78
2023/10/16 07:59:06;;;;;;;5.27;2.20;;;7.30;1.00;;;;;;5031505;28;20436;-77
2023/10/16 08:01:36;;;;;;;5.37;2.40;;;7.50;1.00;;;;;;5024597;28;20547;-74
2023/10/16 08:04:06;;;;;;;3.80;2.20;;;7.70;1.00;;;;;;5026166;28;20539;-79
2023/10/16 08:06:39;;;;;;;3.00;2.07;;;7.80;1.00;;;;;;5028717;28;20922;-75
2023/10/16 08:11:57;;;;;;;3.60;2.20;;;8.20;1.00;;;;;;5026774;28;20486;-80
2023/10/16 08:14:27;;;;;;;10.10;3.30;;;8.30;1.00;;;;;;5023057;28;20492;-77
2023/10/16 08:16:58;;;;;;;8.87;3.40;;;8.40;1.00;;;;;;5023997;28;20424;-76
2023/10/16 08:19:31;;;;;;;18.20;3.53;;;8.60;1.00;;;;;;5027547;28;20895;-76
2023/10/16 08:21:57;;;;;;;9.77;3.57;;;8.80;1.00;;;;;;5028064;28;20429;-76
2023/10/16 08:24:24;;;;;;;13.40;5.27;;;9.20;1.00;;;;;;5027636;28;20556;-80
2023/10/16 08:26:51;;;;;;;13.60;4.30;;;9.40;1.00;;;;;;5026855;28;20425;-76
2023/10/16 08:31:44;;;;;;;16.43;4.00;;;10.00;1.00;;;;;;5033433;28;20519;-77
2023/10/16 08:34:19;;;;;;;10.43;3.43;;;10.40;1.00;;;;;;5028087;28;20225;-76
2023/10/16 08:36:52;;;;;;;10.20;3.70;;;10.90;1.00;;;;;;5024772;28;20428;-79
2023/10/16 08:39:19;;;;;;;9.40;3.47;;;11.80;1.00;;;;;;5025548;28;20435;-77
2023/10/16 08:41:51;;;;;;;7.63;3.20;;;12.70;1.00;;;;;;5028543;28;20435;-74
2023/10/16 08:44:18;;;;;;;3.80;2.37;;;13.30;1.00;;;;;;5029046;28;20510;-77
2023/10/16 08:46:53;;;;;;;3.10;2.37;;;13.80;1.00;;;;;;5018878;28;20463;-75
2023/10/16 08:49:24;;;;;;;6.53;3.63;;;15.00;1.00;;;;;;5017279;28;20466;-76
2023/10/16 08:52:04;;;;;;;3.60;2.60;;;16.10;1.00;;;;;;5029073;28;20464;-75
2023/10/16 08:54:53;;;;;;;3.73;2.50;;;17.10;1.00;;;;;;5026408;28;20476;-76
2023/10/16 08:57:19;;;;;;;10.63;3.30;;;17.70;1.00;;;;;;5021652;28;20456;-76
2023/10/16 08:59:49;;;;;;;5.13;3.00;;;18.50;1.00;;;;;;5028675;28;20451;-75
2023/10/16 09:02:17;;;;;;;5.50;2.90;;;18.80;1.00;;;;;;5028650;28;20499;-78
2023/10/16 09:04:44;;;;;;;4.83;2.93;;;18.70;1.00;;;;;;5024711;28;20444;-75
2023/10/16 09:07:16;;;;;;;7.97;3.40;;;18.50;1.00;;;;;;5026994;28;20439;-78
2023/10/16 09:09:48;;;;;;;5.20;3.00;;;19.00;1.00;;;;;;5025587;28;20471;-75
2023/10/16 09:12:24;;;;;;;5.03;2.90;;;18.90;1.00;;;;;;5030373;28;20462;-75
2023/10/16 09:14:50;;;;;;;6.43;3.47;;;18.20;1.00;;;;;;5028917;28;20477;-74
2023/10/16 09:17:19;;;;;;;5.20;3.40;;;17.90;1.00;;;;;;5029606;28;20518;-76
2023/10/16 09:19:48;;;;;;;6.57;3.03;;;18.20;1.00;;;;;;5028163;28;20431;-75
2023/10/16 09:22:15;;;;;;;6.40;2.73;;;19.30;1.00;;;;;;5029243;28;20440;-79
2023/10/16 09:24:45;;;;;;;5.47;2.93;;;20.40;1.00;;;;;;5031545;28;20965;-74
2023/10/16 09:27:17;;;;;;;7.30;3.20;;;21.40;1.00;;;;;;5028465;28;20448;-73
2023/10/16 09:29:53;;;;;;;7.40;3.50;;;22.50;1.00;;;;;;5026053;28;20590;-74
2023/10/16 09:32:39;;;;;;;5.03;2.70;;;23.30;1.00;;;;;;5038328;28;20427;-77
2023/10/16 09:35:06;;;;;;;5.87;3.20;;;23.80;1.00;;;;;;5021443;28;20433;-74
2023/10/16 09:37:35;;;;;;;6.13;3.00;;;24.50;1.00;;;;;;5028302;28;20436;-77
2023/10/16 09:40:18;;;;;;;7.73;3.60;;;25.00;1.00;;;;;;5026173;28;20477;-76
2023/10/16 09:42:56;;;;;;;6.80;3.47;;;26.20;1.00;;;;;;5028796;28;20201;-78
2023/10/16 09:45:25;;;;;;;4.50;2.40;;;26.20;1.00;;;;;;5030065;28;20184;-75
2023/10/16 09:47:57;;;;;;;5.17;3.23;;;26.80;1.00;;;;;;5023675;28;20223;-77
2023/10/16 09:50:24;;;;;;;5.93;2.30;;;26.60;1.00;;;;;;5022463;28;20181;-76
2023/10/16 09:52:49;;;;;;;3.25;1.60;;;26.90;1.00;;;;;;5026968;28;20699;-75
2023/10/16 09:55:18;;;;;;;3.17;1.75;;;26.80;1.00;;;;;;5027323;28;20307;-76
2023/10/16 09:57:53;;;;;;;3.53;1.60;;;26.80;1.00;;;;;;5027810;28;20169;-77
2023/10/16 10:02:51;;;;;;;3.75;1.60;;;27.10;1.00;;;;;;5028124;28;20323;-76
2023/10/16 10:05:22;;;;;;;3.38;1.85;;;27.00;1.00;;;;;;5030923;28;20227;-75
2023/10/16 10:07:49;;;;;;;4.32;1.98;;;27.10;1.00;;;;;;5029232;28;20232;-76
2023/10/16 10:13:08;;;;;;;4.32;1.88;;;28.00;1.00;;;;;;5025036;28;20200;-77
2023/10/16 10:15:39;;;;;;;5.15;2.20;;;28.20;1.00;;;;;;5021050;28;20169;-76
2023/10/16 10:21:27;;;;;;;4.18;2.15;;;27.70;1.00;;;;;;5050150;28;20202;-77
2023/10/16 10:24:00;;;;;;;3.60;1.80;;;28.70;1.00;;;;;;5049587;28;20267;-79
2023/10/16 10:26:26;;;;;;;2.90;1.63;;;29.40;1.00;;;;;;5030738;28;20189;-75
2023/10/16 10:29:09;;;;;;;2.80;1.60;;;30.20;1.00;;;;;;5026552;28;20601;-76
2023/10/16 10:31:41;;;;;;;3.05;1.48;;;30.90;1.00;;;;;;5032278;28;20638;-77
2023/10/16 10:34:23;;;;;;;3.42;1.77;;;31.10;1.00;;;;;;5021312;28;20212;-80
2023/10/16 10:36:49;;;;;;;4.47;2.03;;;30.50;1.00;;;;;;5033379;28;20600;-77
2023/10/16 10:39:21;;;;;;;3.53;1.95;;;29.30;1.00;;;;;;5047918;28;20181;-74
2023/10/16 10:41:48;;;;;;;3.42;1.65;;;29.70;1.00;;;;;;5033574;28;20621;-78
2023/10/16 10:44:15;;;;;;;2.97;1.77;;;30.30;1.00;;;;;;5025600;28;20193;-75
2023/10/16 10:46:49;;;;;;;3.20;1.70;;;31.30;1.00;;;;;;5025690;28;20235;-73
2023/10/16 10:49:15;;;;;;;3.53;1.85;;;32.20;1.00;;;;;;5026751;28;20216;-74
2023/10/16 10:51:44;;;;;;;2.72;1.35;;;32.10;1.00;;;;;;5023738;28;20474;-75
2023/10/16 10:54:13;;;;;;;3.25;1.70;;;31.80;1.00;;;;;;5048561;28;20205;-77
2023/10/16 10:56:39;;;;;;;4.75;2.10;;;30.70;1.00;;;;;;5031511;28;20219;-78
2023/10/16 10:59:10;;;;;;;3.80;1.92;;;30.40;1.00;;;;;;5031640;28;20173;-77
2023/10/16 11:02:08;;;;;;;3.30;1.90;;;30.70;1.00;;;;;;5024214;28;20188;-77
2023/10/16 11:04:34;;;;;;;2.70;1.40;;;31.80;1.00;;;;;;5027301;28;20204;-79
2023/10/16 11:07:11;;;;;;;2.97;1.60;;;32.00;1.00;;;;;;5030435;28;20187;-75
2023/10/16 11:09:38;;;;;;;3.28;1.77;;;32.80;1.00;;;;;;5032813;28;20543;-78
2023/10/16 11:12:06;;;;;;;3.10;1.50;;;33.30;1.00;;;;;;5036453;28;20181;-75
2023/10/16 11:14:35;;;;;;;2.83;1.38;;;33.00;1.00;;;;;;5024650;28;20190;-78
2023/10/16 11:17:05;;;;;;;5.18;1.60;;;32.90;1.00;;;;;;5032472;28;20203;-77
2023/10/16 11:19:49;;;;;;;3.00;1.50;;;33.30;1.00;;;;;;5031247;28;20177;-79
2023/10/16 11:22:20;;;;;;;2.80;1.33;;;33.90;1.00;;;;;;5045860;28;20173;-78
2023/10/16 11:24:47;;;;;;;3.00;1.60;;;34.80;1.00;;;;;;5026219;28;20287;-77
2023/10/16 11:27:13;;;;;;;2.88;1.45;;;34.30;1.00;;;;;;5029239;28;20235;-76
2023/10/16 11:29:42;;;;;;;2.83;1.30;;;33.50;1.00;;;;;;5029521;28;20201;-79
2023/10/16 11:32:14;;;;;;;2.92;1.40;;;32.70;1.00;;;;;;5026774;28;20303;-82
2023/10/16 11:34:42;;;;;;;2.95;1.42;;;32.00;1.00;;;;;;5025752;28;20189;-79
2023/10/16 11:37:12;;;;;;;3.72;1.42;;;31.50;1.00;;;;;;5028074;28;20259;-77
2023/10/16 11:39:38;;;;;;;3.03;1.40;;;31.10;1.00;;;;;;5030844;28;20209;-79
2023/10/16 11:42:04;;;;;;;2.70;1.30;;;30.60;1.00;;;;;;5039811;28;20212;-80
2023/10/16 11:44:32;;;;;;;2.50;1.30;;;30.40;1.00;;;;;;5031708;28;20255;-78
2023/10/16 11:47:01;;;;;;;2.70;1.40;;;31.60;1.00;;;;;;5030948;28;20177;-77
2023/10/16 11:49:35;;;;;;;3.35;1.50;;;32.00;1.00;;;;;;5043823;28;20208;-78
2023/10/16 11:52:08;;;;;;;2.50;1.33;;;32.00;1.00;;;;;;5030798;28;20168;-76
2023/10/16 11:54:36;;;;;;;2.67;1.40;;;32.10;1.00;;;;;;5037576;28;20190;-76
2023/10/16 11:57:01;;;;;;;4.32;2.05;;;31.60;1.00;;;;;;5030033;28;20189;-76
2023/10/16 11:59:28;;;;;;;3.65;1.30;;;31.20;1.00;;;;;;5030197;28;20192;-78
2023/10/16 12:01:59;;;;;;;7.65;1.83;;;31.10;1.00;;;;;;5029953;28;20209;-75
2023/10/16 12:04:26;;;;;;;3.08;1.38;;;30.80;1.00;;;;;;5030525;28;20251;-78
2023/10/16 12:06:52;;;;;;;2.97;1.40;;;30.70;1.00;;;;;;5031929;28;20200;-76
2023/10/16 12:09:21;;;;;;;2.42;1.30;;;30.80;1.00;;;;;;5029197;28;20205;-77
2023/10/16 12:11:50;;;;;;;2.58;1.60;;;30.50;1.00;;;;;;5026972;28;20200;-79
2023/10/16 12:14:17;;;;;;;3.55;1.48;;;29.30;1.00;;;;;;5030993;28;20275;-79
2023/10/16 12:16:47;;;;;;;3.33;1.60;;;29.30;1.00;;;;;;5029824;28;20178;-75
2023/10/16 12:19:17;;;;;;;2.95;1.35;;;30.30;1.00;;;;;;5030813;28;20173;-80
2023/10/16 12:21:44;;;;;;;2.58;1.30;;;30.00;1.00;;;;;;5032551;28;20186;-80
2023/10/16 12:24:13;;;;;;;3.08;1.52;;;29.10;1.00;;;;;;5029787;28;20239;-78
2023/10/16 12:26:40;;;;;;;3.60;1.40;;;29.10;1.00;;;;;;5027921;28;20185;-77
2023/10/16 12:29:08;;;;;;;3.08;1.50;;;30.10;1.00;;;;;;5030166;28;20193;-77
2023/10/16 12:31:34;;;;;;;2.83;1.40;;;30.40;1.00;;;;;;5049375;28;20233;-76
2023/10/16 12:33:59;;;;;;;3.22;1.42;;;30.40;1.00;;;;;;5028368;28;20209;-76
2023/10/16 12:36:25;;;;;;;5.47;1.60;;;30.30;1.00;;;;;;5029677;28;20174;-76
2023/10/16 12:38:53;;;;;;;3.30;1.63;;;29.70;1.00;;;;;;5029587;28;20192;-76
2023/10/16 12:41:20;;;;;;;2.80;1.30;;;29.50;1.00;;;;;;5020293;28;20192;-78
2023/10/16 12:43:46;;;;;;;2.90;1.40;;;28.60;1.00;;;;;;5041704;28;20380;-76
2023/10/16 12:46:12;;;;;;;2.63;1.30;;;27.90;1.00;;;;;;5030132;28;20208;-77
2023/10/16 12:48:38;;;;;;;2.83;1.45;;;27.90;1.00;;;;;;5029981;28;20667;-76
2023/10/16 12:51:07;;;;;;;3.40;1.30;;;28.20;1.00;;;;;;5029001;28;20267;-77
2023/10/16 12:53:33;;;;;;;3.17;1.20;;;28.40;1.00;;;;;;5028720;28;20193;-80
2023/10/16 12:55:59;;;;;;;3.20;1.30;;;28.60;1.00;;;;;;5028837;28;20181;-80
2023/10/16 12:58:26;;;;;;;2.47;1.30;;;28.80;1.00;;;;;;5029194;28;20698;-75
2023/10/16 13:00:51;;;;;;;2.75;1.35;;;27.70;1.00;;;;;;5028500;28;20169;-79
2023/10/16 13:03:20;;;;;;;3.00;1.42;;;26.00;1.00;;;;;;5025175;28;20327;-78
2023/10/16 13:05:48;;;;;;;2.97;1.50;;;24.00;1.00;;;;;;5028211;28;20193;-77
2023/10/16 13:08:14;;;;;;;2.70;1.30;;;22.70;1.00;;;;;;5030328;28;20197;-77
2023/10/16 13:10:40;;;;;;;3.40;1.53;;;22.20;1.00;;;;;;5029402;28;20173;-79
2023/10/16 13:13:05;;;;;;;3.27;1.50;;;21.80;1.00;;;;;;5029056;28;20216;-78
2023/10/16 13:15:31;;;;;;;3.50;1.20;;;21.40;1.00;;;;;;5028777;28;20255;-74
2023/10/16 13:18:03;;;;;;;4.93;1.50;;;21.20;1.00;;;;;;5029190;28;20181;-79
2023/10/16 13:20:28;;;;;;;3.73;2.30;;;20.60;1.00;;;;;;5027076;28;20200;-77
2023/10/16 13:22:55;;;;;;;6.17;1.30;;;20.20;1.00;;;;;;5025552;28;20463;-76
2023/10/16 13:25:30;;;;;;;2.27;1.13;;;20.30;1.00;;;;;;5024449;28;20182;-76
2023/10/16 13:27:57;;;;;;;3.87;1.47;;;20.10;1.00;;;;;;5026257;28;20439;-77
2023/10/16 13:30:23;;;;;;;2.90;1.67;;;20.10;1.00;;;;;;5024672;28;20428;-77
2023/10/16 13:32:49;;;;;;;3.03;1.37;;;19.90;1.00;;;;;;5027672;28;20498;-79
2023/10/16 13:35:18;;;;;;;3.27;1.60;;;19.80;1.00;;;;;;5026554;28;20231;-79
2023/10/16 13:37:45;;;;;;;3.10;1.50;;;19.40;1.00;;;;;;5033968;28;20178;-79
2023/10/16 13:40:21;;;;;;;3.23;1.57;;;18.80;1.00;;;;;;5041474;28;20818;-76
2023/10/16 13:42:48;;;;;;;3.20;1.40;;;18.60;1.00;;;;;;5024391;28;20513;-76
2023/10/16 13:45:14;;;;;;;3.50;1.40;;;18.70;1.00;;;;;;5024727;28;20528;-76
2023/10/16 13:47:42;;;;;;;3.13;1.40;;;18.50;1.00;;;;;;5026875;28;20749;-76
2023/10/16 13:50:12;;;;;;;2.67;1.37;;;18.00;1.00;;;;;;5027900;28;20187;-77
2023/10/16 13:52:40;;;;;;;4.20;1.60;;;18.00;1.00;;;;;;5028213;28;20428;-75
2023/10/16 13:55:12;;;;;;;3.37;1.30;;;18.00;1.00;;;;;;5028295;28;20856;-77
2023/10/16 13:57:44;;;;;;;2.60;1.37;;;17.80;1.00;;;;;;5030543;28;20435;-78
2023/10/16 14:00:29;;;;;;;3.10;1.47;;;17.50;1.00;;;;;;5028328;28;20930;-76
2023/10/16 14:05:47;;;;;;;2.67;1.50;;;17.00;1.00;;;;;;5026851;28;20527;-76
2023/10/16 14:08:17;;;;;;;3.73;1.70;;;16.90;1.00;;;;;;5031520;28;21049;-76
2023/10/16 14:10:49;;;;;;;2.33;1.40;;;16.60;1.00;;;;;;5030078;28;20459;-75
2023/10/16 14:13:18;;;;;;;3.07;1.43;;;16.60;1.00;;;;;;5028518;28;20976;-76
2023/10/16 14:15:48;;;;;;;2.87;1.33;;;16.80;1.00;;;;;;5026880;28;20440;-77
2023/10/16 14:18:20;;;;;;;3.03;1.30;;;17.10;1.00;;;;;;5030937;28;20443;-75
2023/10/16 14:20:47;;;;;;;2.37;1.53;;;17.40;1.00;;;;;;5027583;28;20475;-75
2023/10/16 14:23:19;;;;;;;3.00;1.40;;;17.50;1.00;;;;;;5025851;28;20485;-76
2023/10/16 14:25:48;;;;;;;1.97;1.33;;;17.50;1.00;;;;;;5045952;28;20442;-76
2023/10/16 14:28:27;;;;;;;3.60;1.40;;;17.30;1.00;;;;;;5028465;28;20585;-76
2023/10/16 14:30:58;;;;;;;2.43;1.67;;;16.90;1.00;;;;;;5024713;28;20442;-78
2023/10/16 14:33:25;;;;;;;3.27;1.40;;;16.90;1.00;;;;;;5024322;28;20513;-77
2023/10/16 14:35:51;;;;;;;1.60;1.13;;;16.80;1.00;;;;;;5027120;28;20467;-76
2023/10/16 14:38:19;;;;;;;3.20;1.40;;;16.70;1.00;;;;;;5028078;28;20744;-75
2023/10/16 14:40:48;;;;;;;2.00;1.30;;;16.50;1.00;;;;;;5027543;28;20177;-77
2023/10/16 14:43:17;;;;;;;2.60;1.60;;;16.30;1.00;;;;;;5025846;28;20749;-75
2023/10/16 14:45:47;;;;;;;2.50;1.57;;;16.10;1.00;;;;;;5027668;28;20439;-77
2023/10/16 14:48:15;;;;;;;3.03;1.80;;;15.90;1.00;;;;;;5029051;28;20468;-76
2023/10/16 14:50:44;;;;;;;2.50;1.50;;;15.90;1.00;;;;;;5027074;28;20502;-77
2023/10/16 14:53:10;;;;;;;3.00;1.50;;;15.90;1.00;;;;;;5026321;28;20830;-75
2023/10/16 14:55:36;;;;;;;1.40;1.13;;;15.80;1.00;;;;;;5028573;28;20436;-78